Time;durP1;ratioP1;P1;durP2;ratioP2;P2;SDS_P1;SDS_P2;PMS_P1;PMS_P2;Temp;Humidity;BMP_temperature;BMP_pressure;BME280_temperature;BME280_humidity;BME280_pressure;Samples;Min_cycle;Max_cycle;Signal;HPM_P1;HPM_P2
2023/01/14 00:01:30;;;;;;;19.95;3.60;;;;;;;6.26;94.87;101349.56;4855057;29;20551;-77
2023/01/14 00:03:57;;;;;;;23.63;4.00;;;;;;;6.26;95.09;101352.19;4857072;29;20050;-77
2023/01/14 00:06:29;;;;;;;23.67;4.07;;;;;;;6.27;94.63;101351.31;4865662;29;20053;-76
2023/01/14 00:09:03;;;;;;;18.35;3.42;;;;;;;6.28;94.67;101360.03;4873338;29;20049;-76
2023/01/14 00:14:33;;;;;;;20.50;3.33;;;;;;;6.24;94.19;101361.78;4871743;29;20050;-79
2023/01/14 00:17:01;;;;;;;23.70;4.53;;;;;;;6.21;94.32;101374.88;4872408;29;20069;-77
2023/01/14 00:19:28;;;;;;;24.00;4.03;;;;;;;6.18;94.29;101370.53;4870677;29;20076;-77
2023/01/14 00:21:55;;;;;;;22.15;3.70;;;;;;;6.18;94.44;101381.00;4869705;29;20042;-77
2023/01/14 00:24:23;;;;;;;21.00;3.55;;;;;;;6.20;94.42;101384.50;4854698;29;20038;-77
2023/01/14 00:26:55;;;;;;;19.60;4.00;;;;;;;6.24;94.76;101392.34;4863299;29;20046;-75
2023/01/14 00:29:29;;;;;;;20.15;3.85;;;;;;;6.30;95.07;101390.59;4866699;29;20041;-78
2023/01/14 00:32:03;;;;;;;19.20;3.63;;;;;;;6.36;95.02;101400.13;4871057;29;20541;-80
2023/01/14 00:34:32;;;;;;;19.25;3.50;;;;;;;6.42;95.02;101401.84;4868567;29;20058;-76
2023/01/14 00:36:59;;;;;;;24.70;3.95;;;;;;;6.46;94.47;101399.22;4867961;29;20050;-75
2023/01/14 00:39:26;;;;;;;14.43;3.33;;;;;;;6.49;93.97;101401.84;4867608;29;20141;-76
2023/01/14 00:41:53;;;;;;;23.48;4.45;;;;;;;6.50;93.33;101397.47;4864838;29;20046;-76
2023/01/14 00:44:21;;;;;;;17.00;3.75;;;;;;;6.52;93.45;101398.31;4865136;29;20050;-76
2023/01/14 00:46:50;;;;;;;19.17;3.28;;;;;;;6.51;93.51;101387.00;4870111;29;20053;-76
2023/01/14 00:49:21;;;;;;;23.15;4.50;;;;;;;6.52;93.44;101396.59;4864996;29;20144;-75
2023/01/14 00:51:48;;;;;;;22.02;3.90;;;;;;;6.54;93.08;101383.47;4867154;29;20046;-75
2023/01/14 00:54:18;;;;;;;17.73;3.65;;;;;;;6.57;92.79;101388.72;4868905;29;20133;-76
2023/01/14 00:56:46;;;;;;;27.25;4.35;;;;;;;6.59;92.83;101388.69;4869088;29;20519;-74
2023/01/14 00:59:21;;;;;;;19.42;3.42;;;;;;;6.59;92.86;101393.94;4869818;29;20122;-78
2023/01/14 01:01:51;;;;;;;24.40;3.70;;;;;;;6.56;92.74;101373.88;4858644;29;20107;-77
2023/01/14 01:04:18;;;;;;;21.55;4.70;;;;;;;6.57;92.59;101382.59;4870414;29;20133;-77
2023/01/14 01:06:46;;;;;;;22.50;3.35;;;;;;;6.56;91.93;101378.25;4871513;29;20050;-77
2023/01/14 01:09:13;;;;;;;17.10;3.70;;;;;;;6.55;91.70;101381.75;4859367;29;20082;-77
2023/01/14 01:11:40;;;;;;;18.83;3.63;;;;;;;6.48;92.02;101394.84;4872924;29;20042;-81
2023/01/14 01:14:07;;;;;;;26.27;4.43;;;;;;;6.47;91.75;101393.09;4873053;29;20057;-79
2023/01/14 01:16:34;;;;;;;27.17;3.92;;;;;;;6.45;92.17;101407.97;4871172;29;20061;-80
2023/01/14 01:19:01;;;;;;;24.20;4.57;;;;;;;6.43;92.36;101409.72;4871695;29;20050;-80
2023/01/14 01:21:28;;;;;;;20.00;3.63;;;;;;;6.46;92.34;101419.31;4875582;29;20141;-81
2023/01/14 01:23:55;;;;;;;21.33;4.00;;;;;;;6.46;92.45;101411.47;4875361;29;20049;-75
2023/01/14 01:26:25;;;;;;;31.70;4.35;;;;;;;6.47;92.43;101410.59;4874628;29;20447;-76
2023/01/14 01:28:58;;;;;;;20.88;3.88;;;;;;;6.46;92.32;101420.19;4867838;29;20057;-76
2023/01/14 01:31:27;;;;;;;19.45;3.67;;;;;;;6.44;92.27;101415.81;4864294;29;20045;-77
2023/01/14 01:33:56;;;;;;;23.15;3.80;;;;;;;6.37;92.06;101421.09;4869033;29;20802;-76
2023/01/14 01:36:28;;;;;;;19.95;3.20;;;;;;;6.31;92.18;101410.63;4863177;29;20747;-76
2023/01/14 01:38:56;;;;;;;23.60;4.53;;;;;;;6.19;92.41;101411.56;4871622;29;20816;-77
2023/01/14 01:41:30;;;;;;;18.20;4.07;;;;;;;6.14;92.52;101413.31;4870838;29;20088;-77
2023/01/14 01:44:12;;;;;;;22.88;3.83;;;;;;;6.04;92.70;101403.75;4870033;29;20042;-76
2023/01/14 01:46:41;;;;;;;21.00;3.67;;;;;;;5.94;92.92;101408.09;4864604;29;20046;-78
2023/01/14 01:49:18;;;;;;;29.42;4.30;;;;;;;5.87;92.89;101419.44;4867019;29;20605;-77
2023/01/14 01:52:13;;;;;;;24.25;4.80;;;;;;;5.79;93.17;101410.75;4888817;29;20906;-78
2023/01/14 01:55:06;;;;;;;26.55;3.95;;;;;;;5.70;93.41;101407.25;4875487;29;20050;-80
2023/01/14 01:57:36;;;;;;;26.23;4.05;;;;;;;5.64;93.47;101412.50;4863505;29;20053;-81
2023/01/14 02:00:08;;;;;;;25.73;4.00;;;;;;;5.60;93.75;101405.50;4864769;29;20048;-80
2023/01/14 02:02:45;;;;;;;27.05;4.25;;;;;;;5.57;94.06;101397.69;4872579;29;20073;-80
2023/01/14 02:05:12;;;;;;;30.85;4.40;;;;;;;5.51;94.14;101393.31;4868681;29;20156;-79
2023/01/14 02:07:39;;;;;;;23.77;4.57;;;;;;;5.48;94.18;101392.47;4873035;29;20507;-78
2023/01/14 02:10:07;;;;;;;24.17;4.45;;;;;;;5.43;94.42;101395.06;4874554;29;20053;-78
2023/01/14 02:13:10;;;;;;;20.70;3.88;;;;;;;5.40;94.39;101411.63;4875626;29;20124;-78
2023/01/14 02:16:15;;;;;;;24.15;4.28;;;;;;;5.35;94.64;101418.59;4871621;29;20587;-78
2023/01/14 02:19:19;;;;;;;30.92;4.05;;;;;;;5.31;94.82;101410.75;4870800;29;20466;-78
2023/01/14 02:22:27;;;;;;;26.65;3.78;;;;;;;5.27;95.14;101402.91;4853555;29;20057;-78
2023/01/14 02:25:26;;;;;;;28.38;5.25;;;;;;;5.21;95.35;101392.44;4865811;29;20057;-75
2023/01/14 02:28:33;;;;;;;26.58;4.50;;;;;;;5.20;95.47;101393.31;4852556;29;20142;-75
2023/01/14 02:31:18;;;;;;;35.47;4.18;;;;;;;5.16;95.64;101382.84;4872578;29;20057;-77
2023/01/14 02:34:10;;;;;;;29.08;4.85;;;;;;;5.17;95.77;101384.59;4861196;29;20708;-77
2023/01/14 02:37:10;;;;;;;29.20;5.22;;;;;;;5.10;95.85;101363.66;4861410;29;20143;-76
2023/01/14 02:40:06;;;;;;;29.90;4.40;;;;;;;5.09;95.94;101353.22;4872448;29;20053;-77
2023/01/14 02:45:45;;;;;;;28.52;4.22;;;;;;;5.00;95.93;101334.94;4869437;29;20045;-77
2023/01/14 02:48:15;;;;;;;30.58;4.28;;;;;;;4.94;96.16;101333.19;4868789;29;20133;-77
2023/01/14 02:50:43;;;;;;;24.58;3.83;;;;;;;4.88;96.08;101322.72;4867440;29;20846;-76
2023/01/14 02:53:16;;;;;;;22.50;4.30;;;;;;;4.83;96.01;101325.34;4872191;29;20429;-77
2023/01/14 02:55:43;;;;;;;36.53;4.55;;;;;;;4.78;96.33;101319.22;4872860;29;20483;-76
2023/01/14 02:59:01;;;;;;;24.98;4.57;;;;;;;4.75;96.50;101321.81;4873035;29;20045;-77
2023/01/14 03:02:01;;;;;;;;;;;;;;;4.68;96.73;101315.72;4871638;29;20910;-78
2023/01/14 03:04:51;;;;;;;28.73;4.60;;;;;;;4.65;96.83;101321.81;4864853;29;19931;-80
2023/01/14 03:07:52;;;;;;;28.90;4.35;;;;;;;4.64;96.81;101325.28;4870688;29;20132;-77
2023/01/14 03:10:52;;;;;;;29.17;4.55;;;;;;;4.66;97.16;101327.91;4855603;29;20050;-78
2023/01/14 03:13:35;;;;;;;23.75;4.07;;;;;;;4.64;97.19;101329.66;4867548;29;20048;-76
2023/01/14 03:16:18;;;;;;;26.15;4.85;;;;;;;4.64;97.19;101317.44;4866087;29;20434;-76
2023/01/14 03:18:59;;;;;;;33.70;4.53;;;;;;;4.64;97.34;101325.28;4870616;29;20068;-76
2023/01/14 03:21:35;;;;;;;26.90;4.32;;;;;;;4.62;97.36;101319.22;4868417;29;20873;-76
2023/01/14 03:24:12;;;;;;;32.70;4.22;;;;;;;4.65;97.61;101320.94;4871566;29;20077;-75
2023/01/14 03:26:47;;;;;;;31.77;5.10;;;;;;;4.65;97.85;101310.50;4873037;29;20806;-76
2023/01/14 03:29:26;;;;;;;35.80;4.80;;;;;;;4.65;97.68;101313.13;4871835;29;20045;-76
2023/01/14 03:32:05;;;;;;;43.28;5.18;;;;;;;4.63;97.74;101310.47;4868201;29;20045;-75
2023/01/14 03:34:43;;;;;;;34.38;4.72;;;;;;;4.60;97.88;101309.59;4868627;29;20553;-75
2023/01/14 03:37:16;;;;;;;25.15;4.57;;;;;;;4.58;97.90;101304.41;4862264;29;20045;-75
2023/01/14 03:39:48;;;;;;;25.13;3.80;;;;;;;4.59;98.10;101305.25;4868567;29;20114;-78
2023/01/14 03:42:23;;;;;;;30.38;3.97;;;;;;;4.63;98.33;101309.63;4856740;29;20599;-77
2023/01/14 03:45:08;;;;;;;24.80;4.10;;;;;;;4.64;98.67;101290.47;4857644;29;20595;-77
2023/01/14 03:47:36;;;;;;;28.45;4.45;;;;;;;4.68;98.62;101289.59;4869551;29;20057;-75
2023/01/14 03:50:10;;;;;;;22.85;3.95;;;;;;;4.74;98.83;101284.41;4865784;29;20046;-75
2023/01/14 03:52:47;;;;;;;32.65;4.22;;;;;;;4.77;98.92;101280.91;4857184;29;20074;-76
2023/01/14 03:55:33;;;;;;;27.85;3.53;;;;;;;4.81;98.98;101278.28;4873558;29;20053;-75
2023/01/14 03:58:12;;;;;;;37.60;5.28;;;;;;;4.86;99.08;101278.28;4862062;29;20049;-76
2023/01/14 04:01:09;;;;;;;29.67;3.72;;;;;;;4.90;99.02;101279.16;4856379;29;20046;-76
2023/01/14 04:03:37;;;;;;;35.70;4.22;;;;;;;4.91;99.03;101268.72;4865894;29;20126;-75
2023/01/14 04:06:05;;;;;;;28.77;4.20;;;;;;;4.95;98.92;101280.06;4860872;29;20053;-76
2023/01/14 04:08:32;;;;;;;28.02;3.92;;;;;;;4.96;98.63;101273.97;4873066;29;20054;-75
2023/01/14 04:11:00;;;;;;;28.25;3.97;;;;;;;4.98;98.76;101267.84;4873420;29;20048;-75
2023/01/14 04:16:12;;;;;;;28.67;3.83;;;;;;;5.02;98.83;101267.84;4867158;29;20426;-76
2023/01/14 04:18:39;;;;;;;26.17;4.28;;;;;;;5.06;98.96;101261.75;4860802;29;20842;-75
2023/01/14 04:21:06;;;;;;;37.90;4.57;;;;;;;5.08;99.00;101250.44;4869471;29;20157;-75
2023/01/14 04:23:33;;;;;;;34.55;4.65;;;;;;;5.11;99.01;101241.72;4869356;29;20049;-75
2023/01/14 04:26:01;;;;;;;28.25;3.72;;;;;;;5.14;98.94;101236.47;4872619;29;20443;-74
2023/01/14 04:28:28;;;;;;;29.80;3.90;;;;;;;5.17;98.94;101223.41;4872394;29;20050;-75
2023/01/14 04:30:55;;;;;;;31.55;4.05;;;;;;;5.19;98.90;101213.81;4872134;29;20431;-74
2023/01/14 04:33:22;;;;;;;28.23;3.95;;;;;;;5.23;98.99;101218.19;4871256;29;20042;-74
2023/01/14 04:35:50;;;;;;;22.50;3.85;;;;;;;5.28;98.93;101212.94;4867804;29;20046;-75
2023/01/14 04:38:20;;;;;;;24.55;4.15;;;;;;;5.29;98.78;101210.31;4868513;29;20148;-79
2023/01/14 04:40:54;;;;;;;23.13;3.45;;;;;;;5.32;98.78;101198.97;4869027;29;20110;-80
2023/01/14 04:43:22;;;;;;;29.05;3.83;;;;;;;5.34;98.75;101204.22;4856858;29;20552;-79
2023/01/14 04:45:52;;;;;;;27.92;3.75;;;;;;;5.38;98.67;101203.31;4864811;29;20052;-80
2023/01/14 04:48:22;;;;;;;25.08;3.78;;;;;;;5.39;98.63;101194.59;4857814;29;20053;-80
2023/01/14 04:50:50;;;;;;;14.95;3.33;;;;;;;5.38;98.61;101190.22;4860859;29;20136;-80
2023/01/14 04:53:21;;;;;;;27.90;3.83;;;;;;;5.42;98.52;101191.97;4873420;29;20058;-83
2023/01/14 04:55:55;;;;;;;21.55;3.28;;;;;;;5.42;98.39;101177.16;4875895;29;20060;-81
2023/01/14 04:58:23;;;;;;;20.65;3.22;;;;;;;5.41;98.11;101172.78;4891477;29;20549;-82
2023/01/14 05:00:51;;;;;;;25.88;3.38;;;;;;;5.40;98.20;101159.72;4869184;29;20038;-81
2023/01/14 05:03:18;;;;;;;28.20;3.90;;;;;;;5.41;98.38;101164.09;4860864;29;20113;-83
2023/01/14 05:05:46;;;;;;;21.25;2.92;;;;;;;5.41;98.09;101159.72;4870694;29;20037;-78
2023/01/14 05:08:13;;;;;;;19.95;4.20;;;;;;;5.43;98.11;101159.72;4871219;29;20564;-76
2023/01/14 05:10:41;;;;;;;20.45;3.30;;;;;;;5.42;98.25;101152.75;4875704;29;20045;-75
2023/01/14 05:13:08;;;;;;;21.92;3.70;;;;;;;5.43;98.29;101147.50;4874691;29;20053;-74
2023/01/14 05:15:39;;;;;;;20.38;3.78;;;;;;;5.44;98.40;101144.03;4871848;29;20056;-75
2023/01/14 05:18:11;;;;;;;25.27;3.67;;;;;;;5.46;98.65;101140.53;4874000;29;20133;-75
2023/01/14 05:20:39;;;;;;;18.67;3.33;;;;;;;5.50;98.29;101142.25;4871614;29;20065;-76
2023/01/14 05:23:12;;;;;;;23.75;3.42;;;;;;;5.51;98.39;101143.97;4866259;29;20539;-78
2023/01/14 05:25:41;;;;;;;22.13;3.35;;;;;;;5.52;98.37;101137.88;4865493;29;20050;-80
2023/01/14 05:28:15;;;;;;;20.95;3.45;;;;;;;5.52;98.28;101133.53;4874463;29;20054;-80
2023/01/14 05:30:42;;;;;;;15.70;3.17;;;;;;;5.53;98.09;101124.81;4867317;29;20053;-77
2023/01/14 05:33:10;;;;;;;21.17;3.38;;;;;;;5.54;98.27;101126.56;4872845;29;20056;-77
2023/01/14 05:35:38;;;;;;;22.77;2.97;;;;;;;5.56;98.14;101114.31;4874714;29;20131;-75
2023/01/14 05:38:06;;;;;;;18.40;3.55;;;;;;;5.59;98.17;101111.69;4875997;29;20481;-78
2023/01/14 05:40:33;;;;;;;25.42;3.95;;;;;;;5.62;98.08;101113.41;4874909;29;20046;-77
2023/01/14 05:45:48;;;;;;;22.35;4.07;;;;;;;5.64;97.39;101093.34;4867058;29;20104;-75
2023/01/14 05:48:20;;;;;;;19.35;2.60;;;;;;;5.66;97.52;101089.00;4873716;29;20046;-79
2023/01/14 05:50:52;;;;;;;16.05;2.78;;;;;;;5.67;97.65;101082.88;4873639;29;20041;-75
2023/01/14 05:53:21;;;;;;;16.13;3.35;;;;;;;5.67;97.63;101075.03;4874930;29;20041;-75
2023/01/14 05:55:49;;;;;;;17.30;3.03;;;;;;;5.69;97.34;101067.16;4864780;29;20053;-75
2023/01/14 05:58:18;;;;;;;18.02;3.00;;;;;;;5.69;97.22;101054.97;4869452;29;20502;-75
2023/01/14 06:06:23;;;;;;;22.10;3.42;;;;;;;5.67;96.82;101022.72;4862440;29;20046;-75
2023/01/14 06:09:05;;;;;;;26.88;3.75;;;;;;;5.66;96.90;101023.59;4875077;29;20038;-75
2023/01/14 06:11:32;;;;;;;17.55;3.38;;;;;;;5.67;96.80;101016.59;4874554;29;20054;-76
2023/01/14 06:14:02;;;;;;;22.42;3.90;;;;;;;5.67;96.76;101017.50;4873497;29;20048;-75
2023/01/14 06:16:39;;;;;;;22.20;3.58;;;;;;;5.67;97.07;101016.59;4866015;29;20189;-79
2023/01/14 06:19:12;;;;;;;15.98;2.83;;;;;;;5.67;96.84;101012.25;4864156;29;20053;-79
2023/01/14 06:21:40;;;;;;;16.17;3.05;;;;;;;5.69;96.67;100997.44;4868067;29;20571;-78
2023/01/14 06:24:08;;;;;;;25.13;3.17;;;;;;;5.71;96.54;100995.63;4869332;29;20515;-76
2023/01/14 06:26:36;;;;;;;20.88;3.17;;;;;;;5.74;96.79;100989.53;4866045;29;20144;-76
2023/01/14 06:29:11;;;;;;;20.45;3.50;;;;;;;5.76;96.73;100979.91;4861909;29;20050;-76
2023/01/14 06:31:40;;;;;;;15.20;2.70;;;;;;;5.79;96.28;100972.03;4861206;29;20823;-76
2023/01/14 06:34:08;;;;;;;15.90;2.85;;;;;;;5.81;96.45;100965.06;4864338;29;20058;-80
2023/01/14 06:36:37;;;;;;;17.50;2.95;;;;;;;5.86;96.32;100971.09;4865488;29;20061;-80
2023/01/14 06:39:05;;;;;;;16.48;2.78;;;;;;;5.89;95.70;100965.00;4864157;29;20053;-75
2023/01/14 06:41:32;;;;;;;18.20;3.33;;;;;;;5.90;95.83;100958.88;4871113;29;20116;-77
2023/01/14 06:43:59;;;;;;;24.25;3.58;;;;;;;5.93;95.95;100955.38;4862931;29;20050;-76
2023/01/14 06:46:26;;;;;;;20.75;3.55;;;;;;;5.95;95.83;100948.38;4862324;29;20050;-76
2023/01/14 06:48:54;;;;;;;19.75;3.38;;;;;;;5.98;95.75;100950.94;4855740;29;20038;-78
2023/01/14 06:51:21;;;;;;;20.63;3.40;;;;;;;6.00;95.69;100936.13;4861572;29;20052;-76
2023/01/14 06:53:48;;;;;;;28.90;3.47;;;;;;;6.02;95.72;100930.00;4870925;29;20037;-77
2023/01/14 06:56:17;;;;;;;17.00;2.70;;;;;;;6.04;95.47;100927.38;4865408;29;20058;-79
2023/01/14 06:58:49;;;;;;;22.70;3.35;;;;;;;6.04;95.65;100924.75;4861066;29;20042;-78
2023/01/14 07:01:17;;;;;;;15.18;3.25;;;;;;;6.03;95.81;100915.16;4862935;29;20523;-78
2023/01/14 07:03:44;;;;;;;24.08;3.95;;;;;;;6.02;95.66;100909.06;4861891;29;20046;-77
2023/01/14 07:06:11;;;;;;;16.88;2.65;;;;;;;6.02;95.83;100895.97;4868908;29;20072;-77
2023/01/14 07:08:38;;;;;;;19.00;3.45;;;;;;;6.03;96.00;100897.69;4866394;29;20044;-77
2023/01/14 07:11:06;;;;;;;20.40;3.00;;;;;;;6.04;95.80;100895.97;4863771;29;20125;-77
2023/01/14 07:13:33;;;;;;;21.00;3.50;;;;;;;6.03;96.05;100879.38;4864586;29;20134;-78
2023/01/14 07:16:01;;;;;;;15.48;2.83;;;;;;;6.03;96.19;100879.38;4862875;29;20147;-79
2023/01/14 07:18:28;;;;;;;19.30;3.13;;;;;;;6.03;96.45;100874.16;4863772;29;20053;-81
2023/01/14 07:20:59;;;;;;;19.40;2.88;;;;;;;6.04;96.75;100875.88;4864806;29;20529;-85
2023/01/14 07:23:27;;;;;;;28.25;3.85;;;;;;;6.05;96.93;100871.53;4867658;29;20048;-81
2023/01/14 07:25:58;;;;;;;22.08;3.65;;;;;;;6.05;97.38;100863.69;4864650;29;20045;-80
2023/01/14 07:28:29;;;;;;;18.25;3.60;;;;;;;6.06;97.45;100860.16;4871964;29;20149;-83
2023/01/14 07:30:57;;;;;;;20.98;3.47;;;;;;;6.05;97.18;100846.22;4863614;29;20427;-79
2023/01/14 07:33:24;;;;;;;21.33;3.40;;;;;;;6.04;97.37;100841.00;4863714;29;20453;-78
2023/01/14 07:35:52;;;;;;;22.40;3.53;;;;;;;6.04;97.43;100826.16;4865485;29;20524;-76
2023/01/14 07:38:21;;;;;;;19.08;3.13;;;;;;;6.10;97.94;100829.59;4861087;29;20041;-75
2023/01/14 07:40:49;;;;;;;18.33;3.13;;;;;;;6.20;98.21;100820.75;4864397;29;20527;-76
2023/01/14 07:43:16;;;;;;;21.70;3.47;;;;;;;6.29;98.55;100809.28;4859484;29;22268;-76
2023/01/14 07:45:45;;;;;;;22.30;2.97;;;;;;;6.35;98.69;100798.75;4866994;29;20049;-77
2023/01/14 07:48:12;;;;;;;22.63;3.15;;;;;;;6.39;98.19;100795.19;4859347;29;20053;-77
2023/01/14 07:50:39;;;;;;;16.60;2.75;;;;;;;6.40;98.08;100782.97;4863999;29;20117;-76
2023/01/14 07:53:08;;;;;;;17.33;2.55;;;;;;;6.56;98.99;100783.63;4868088;29;20060;-75
2023/01/14 07:55:36;;;;;;;15.52;3.00;;;;;;;6.77;99.39;100777.19;4871926;29;20054;-75
2023/01/14 07:58:04;;;;;;;17.92;2.67;;;;;;;6.95;99.03;100765.53;4864377;29;20045;-75
2023/01/14 08:00:31;;;;;;;20.50;3.55;;;;;;;7.03;98.45;100758.41;4858242;29;20093;-76
2023/01/14 08:02:58;;;;;;;16.33;2.92;;;;;;;7.13;97.97;100751.22;4868756;29;20096;-76
2023/01/14 08:05:25;;;;;;;16.73;2.65;;;;;;;7.16;97.04;100735.47;4863243;29;20042;-62
2023/01/14 08:07:52;;;;;;;12.88;2.50;;;;;;;7.23;96.85;100733.59;4864954;29;20532;-62
2023/01/14 08:10:19;;;;;;;14.07;2.63;;;;;;;7.28;96.04;100729.13;4859727;29;20041;-62
2023/01/14 08:12:46;;;;;;;14.23;2.70;;;;;;;7.35;96.20;100720.25;4860764;29;20129;-62
2023/01/14 08:15:14;;;;;;;16.25;2.70;;;;;;;7.44;95.40;100706.97;4864166;29;20056;-62
2023/01/14 08:17:41;;;;;;;12.90;2.28;;;;;;;7.49;95.14;100696.38;4867149;29;20060;-63
2023/01/14 08:20:10;;;;;;;14.10;2.50;;;;;;;7.52;95.03;100690.22;4869854;29;20806;-63
2023/01/14 08:22:37;;;;;;;13.43;2.80;;;;;;;7.49;94.75;100678.03;4865976;29;20050;-63
2023/01/14 08:25:05;;;;;;;11.80;2.65;;;;;;;7.48;94.45;100671.06;4859438;29;20534;-63
2023/01/14 08:27:33;;;;;;;14.00;2.80;;;;;;;7.46;94.35;100654.47;4869236;29;20074;-62
2023/01/14 08:30:01;;;;;;;10.05;2.50;;;;;;;7.47;94.41;100656.19;4874172;29;20101;-62
2023/01/14 08:32:28;;;;;;;14.23;2.15;;;;;;;7.52;94.62;100656.09;4871912;29;20050;-62
2023/01/14 08:34:55;;;;;;;13.57;2.60;;;;;;;7.60;94.56;100630.56;4868785;29;20512;-63
2023/01/14 08:37:23;;;;;;;7.68;2.05;;;;;;;7.63;94.57;100635.75;4866375;29;20077;-62
2023/01/14 08:39:50;;;;;;;5.18;1.73;;;;;;;7.66;94.43;100634.81;4865591;29;20053;-62
2023/01/14 08:42:17;;;;;;;8.13;1.70;;;;;;;7.71;94.44;100623.34;4863244;29;20049;-63
2023/01/14 08:44:44;;;;;;;12.80;2.65;;;;;;;7.76;94.12;100612.72;4863092;29;20130;-62
2023/01/14 08:47:11;;;;;;;12.73;2.20;;;;;;;7.79;94.07;100615.31;4857127;29;20801;-63
2023/01/14 08:49:38;;;;;;;10.38;2.10;;;;;;;7.83;94.11;100600.34;4869825;29;20801;-62
2023/01/14 08:52:05;;;;;;;20.20;7.82;;;;;;;7.86;94.14;100595.03;4864300;29;20049;-62
2023/01/14 08:54:33;;;;;;;12.55;3.10;;;;;;;7.87;93.93;100596.75;4867692;29;20057;-63
2023/01/14 08:57:01;;;;;;;9.35;2.70;;;;;;;7.89;94.04;100585.31;4862980;29;20930;-62
2023/01/14 08:59:28;;;;;;;12.48;4.10;;;;;;;7.88;94.12;100569.63;4868035;29;20052;-63
2023/01/14 09:01:56;;;;;;;12.52;3.63;;;;;;;7.95;93.60;100559.81;4865110;29;20934;-63
2023/01/14 09:04:25;;;;;;;11.65;2.90;;;;;;;7.99;94.08;100543.94;4867169;29;20118;-63
2023/01/14 09:18:03;;;;;;;12.07;6.53;;;;;;;7.64;94.25;100508.94;4860771;29;20061;-63
2023/01/14 09:20:38;;;;;;;28.05;20.00;;;;;;;7.52;94.63;100496.97;4860637;29;20045;-63
2023/01/14 09:23:07;;;;;;;;;;;;;;;7.45;95.28;100477.00;4865373;29;20038;-63
2023/01/14 09:25:37;;;;;;;9.93;4.28;;;;;;;7.40;95.75;100474.50;4861405;29;19932;-63
2023/01/14 09:28:05;;;;;;;8.75;3.60;;;;;;;7.39;96.04;100471.91;4863051;29;20291;-63
2023/01/14 09:30:32;;;;;;;9.60;3.97;;;;;;;7.39;96.22;100474.53;4868429;29;20882;-63
2023/01/14 09:32:59;;;;;;;18.27;10.70;;;;;;;7.37;96.49;100469.34;4860907;29;20050;-63
2023/01/14 09:35:28;;;;;;;8.82;3.22;;;;;;;7.36;96.50;100471.97;4864348;29;21042;-63
2023/01/14 09:37:57;;;;;;;11.35;3.60;;;;;;;7.36;96.76;100462.38;4862884;29;20065;-62
2023/01/14 09:40:25;;;;;;;6.72;3.17;;;;;;;7.35;97.02;100471.13;4867541;29;20064;-63
2023/01/14 09:42:53;;;;;;;7.07;2.67;;;;;;;7.35;97.32;100462.38;4864406;29;20060;-62
2023/01/14 09:45:29;;;;;;;9.88;4.60;;;;;;;7.35;97.49;100467.63;4864143;29;20046;-62
2023/01/14 09:48:12;;;;;;;9.23;2.00;;;;;;;7.37;97.67;100455.34;4865018;29;20049;-62
2023/01/14 09:51:11;;;;;;;18.08;11.63;;;;;;;7.37;97.78;100453.59;4863879;29;20480;-62
2023/01/14 09:53:49;;;;;;;9.02;3.00;;;;;;;7.39;97.96;100437.81;4865732;29;20049;-62
2023/01/14 09:56:34;;;;;;;8.57;3.60;;;;;;;7.41;98.03;100426.38;4865378;29;20054;-62
2023/01/14 09:59:11;;;;;;;5.10;2.65;;;;;;;7.42;98.17;100435.13;4858086;29;20050;-63
2023/01/14 10:01:54;;;;;;;6.63;2.25;;;;;;;7.44;98.49;100423.69;4865816;29;20052;-62
2023/01/14 10:04:34;;;;;;;8.93;5.13;;;;;;;7.46;98.46;100410.53;4862379;29;20061;-63
2023/01/14 10:07:06;;;;;;;10.32;4.55;;;;;;;7.44;98.79;100393.97;4858583;29;20080;-63
2023/01/14 10:09:43;;;;;;;9.35;4.57;;;;;;;7.50;98.78;100385.97;4865534;29;20080;-63
2023/01/14 10:12:21;;;;;;;8.50;1.80;;;;;;;7.53;98.70;100379.78;4863831;29;20136;-62
2023/01/14 10:15:03;;;;;;;10.07;5.20;;;;;;;7.55;98.63;100367.50;4863751;29;20487;-63
2023/01/14 10:17:41;;;;;;;8.45;2.30;;;;;;;7.57;98.97;100368.31;4865451;29;20054;-63
2023/01/14 10:20:39;;;;;;;9.13;6.38;;;;;;;7.60;98.67;100349.84;4865089;29;20183;-63
2023/01/14 10:23:18;;;;;;;11.13;1.60;;;;;;;7.61;99.04;100344.59;4861584;29;20070;-63
2023/01/14 10:25:52;;;;;;;7.47;1.63;;;;;;;7.64;98.91;100334.88;4872325;29;20045;-63
2023/01/14 10:28:26;;;;;;;7.85;2.15;;;;;;;7.66;99.34;100323.47;4871260;29;20395;-63
2023/01/14 10:30:58;;;;;;;7.50;1.73;;;;;;;7.69;99.08;100317.28;4865169;29;20125;-62
2023/01/14 10:33:26;;;;;;;7.47;1.80;;;;;;;7.69;99.09;100310.25;4871034;29;20685;-63
2023/01/14 10:36:04;;;;;;;6.30;1.67;;;;;;;7.70;99.03;100293.63;4863125;29;20049;-62
2023/01/14 10:38:32;;;;;;;7.45;1.52;;;;;;;7.72;99.21;100268.19;4866331;29;20046;-62
2023/01/14 10:41:07;;;;;;;5.18;1.20;;;;;;;7.73;99.06;100267.31;4864724;29;20144;-63
2023/01/14 10:43:51;;;;;;;7.65;1.65;;;;;;;7.74;99.32;100252.41;4867016;29;20046;-63
2023/01/14 10:46:21;;;;;;;7.57;1.40;;;;;;;7.77;99.44;100247.97;4867263;29;20080;-63
2023/01/14 10:49:05;;;;;;;7.18;1.55;;;;;;;7.78;99.48;100233.91;4860680;29;20049;-63
2023/01/14 10:51:47;;;;;;;7.80;1.40;;;;;;;7.83;99.43;100236.44;4867213;29;20045;-63
2023/01/14 10:54:20;;;;;;;7.32;1.60;;;;;;;7.84;99.48;100229.41;4861345;29;20913;-63
2023/01/14 10:57:13;;;;;;;3.83;1.42;;;;;;;7.84;99.79;100218.91;4882500;29;20049;-62
2023/01/14 10:59:51;;;;;;;7.40;2.00;;;;;;;7.88;99.67;100210.06;4861287;29;20053;-63
2023/01/14 11:02:33;;;;;;;11.88;2.30;;;;;;;7.92;100.00;100194.16;4862052;29;20050;-63
2023/01/14 11:05:25;;;;;;;44.97;19.77;;;;;;;7.96;100.00;100197.56;4866850;29;20411;-63
2023/01/14 11:07:57;;;;;;;25.42;11.35;;;;;;;8.02;99.84;100189.50;4870514;29;20120;-63
2023/01/14 11:10:30;;;;;;;23.15;13.65;;;;;;;8.05;100.00;100185.91;4867492;29;20052;-63
2023/01/14 11:13:22;;;;;;;15.32;9.55;;;;;;;8.11;99.93;100156.84;4870571;29;20042;-63
2023/01/14 11:15:50;;;;;;;9.15;4.40;;;;;;;8.16;99.84;100138.34;4871235;29;20064;-62
2023/01/14 11:18:18;;;;;;;11.13;7.25;;;;;;;8.20;99.67;100134.69;4865297;29;20786;-63
2023/01/14 11:21:20;;;;;;;13.57;6.40;;;;;;;8.23;99.66;100129.34;4869867;29;20106;-63
2023/01/14 11:24:00;;;;;;;8.30;3.83;;;;;;;8.26;99.94;100120.50;4867927;29;20056;-63
2023/01/14 11:26:38;;;;;;;11.77;5.05;;;;;;;8.28;100.00;100121.31;4862783;29;20142;-63
2023/01/14 11:29:20;;;;;;;12.02;5.47;;;;;;;8.31;100.00;100113.34;4871761;29;20045;-63
2023/01/14 11:31:53;;;;;;;7.47;3.15;;;;;;;8.34;100.00;100108.84;4868230;29;20141;-63
2023/01/14 11:34:35;;;;;;;6.57;1.50;;;;;;;8.38;100.00;100096.47;4864745;29;20049;-63
2023/01/14 11:37:13;;;;;;;9.82;4.63;;;;;;;8.41;100.00;100104.25;4866690;29;20500;-63
2023/01/14 11:39:51;;;;;;;7.28;4.45;;;;;;;8.45;100.00;100082.22;4865218;29;20066;-63
2023/01/14 11:42:38;;;;;;;8.02;2.38;;;;;;;8.48;100.00;100081.31;4859616;29;20423;-63
2023/01/14 11:45:12;;;;;;;3.00;1.92;;;;;;;8.52;99.97;100082.91;4861373;29;20056;-63
2023/01/14 11:47:47;;;;;;;39.17;31.85;;;;;;;8.55;100.00;100062.63;4876459;29;20110;-63
2023/01/14 11:50:21;;;;;;;12.10;9.25;;;;;;;8.61;99.91;100072.06;4865366;29;20073;-63
2023/01/14 11:53:01;;;;;;;7.00;3.70;;;;;;;8.64;99.84;100048.34;4862696;29;20045;-63
2023/01/14 11:55:35;;;;;;;4.68;1.65;;;;;;;8.70;99.64;100044.63;4865381;29;20049;-64
2023/01/14 11:58:15;;;;;;;5.25;4.00;;;;;;;8.76;99.39;100033.06;4864759;29;20069;-64
2023/01/14 12:01:07;;;;;;;2.97;1.10;;;;;;;8.79;99.33;100038.22;4863626;29;20098;-76
2023/01/14 12:03:57;;;;;;;3.80;1.45;;;;;;;8.84;99.19;100028.38;4851628;29;20053;-76
2023/01/14 12:06:33;;;;;;;2.38;1.42;;;;;;;8.88;98.90;100011.59;4853914;29;20500;-76
2023/01/14 12:09:09;;;;;;;2.45;1.25;;;;;;;8.90;98.93;100006.25;4856867;29;20046;-76
2023/01/14 12:11:55;;;;;;;2.40;1.05;;;;;;;8.96;98.81;99998.13;4866167;29;20049;-74
2023/01/14 12:17:37;;;;;;;2.35;0.65;;;;;;;9.02;98.39;99992.66;4872361;29;20126;-74
2023/01/14 12:20:16;;;;;;;5.03;1.48;;;;;;;9.04;98.43;99982.09;4856874;29;20042;-75
2023/01/14 12:23:00;;;;;;;2.30;1.83;;;;;;;9.05;98.51;99968.91;4871073;29;20141;-75
2023/01/14 12:25:34;;;;;;;2.80;1.52;;;;;;;9.04;98.14;99954.03;4856931;29;20050;-75
2023/01/14 12:28:13;;;;;;;1.30;0.95;;;;;;;9.06;97.99;99948.72;4857056;29;20057;-77